sensor_id;sensor_type;location;lat;lon;timestamp;P1;durP1;ratioP1;P2;durP2;ratioP2
63555;SDS011;49700;48.072;7.800;2023-06-10T00:00:15;4.80;;;4.20;;
63555;SDS011;49700;48.072;7.800;2023-06-10T00:02:41;4.60;;;3.63;;
63555;SDS011;49700;48.072;7.800;2023-06-10T00:05:08;5.43;;;4.27;;
63555;SDS011;49700;48.072;7.800;2023-06-10T00:07:34;4.23;;;3.93;;
63555;SDS011;49700;48.072;7.800;2023-06-10T00:10:06;5.10;;;4.60;;
63555;SDS011;49700;48.072;7.800;2023-06-10T00:12:32;4.10;;;3.70;;
63555;SDS011;49700;48.072;7.800;2023-06-10T00:15:02;4.83;;;3.70;;
63555;SDS011;49700;48.072;7.800;2023-06-10T00:17:31;5.57;;;4.20;;
63555;SDS011;49700;48.072;7.800;2023-06-10T00:19:57;4.70;;;4.30;;
63555;SDS011;49700;48.072;7.800;2023-06-10T00:22:23;6.80;;;4.27;;
63555;SDS011;49700;48.072;7.800;2023-06-10T00:24:49;4.93;;;4.53;;
63555;SDS011;49700;48.072;7.800;2023-06-10T00:27:16;4.60;;;4.30;;
63555;SDS011;49700;48.072;7.800;2023-06-10T00:29:41;4.37;;;3.97;;
63555;SDS011;49700;48.072;7.800;2023-06-10T00:32:07;4.50;;;4.10;;
63555;SDS011;49700;48.072;7.800;2023-06-10T00:34:33;4.93;;;4.47;;
63555;SDS011;49700;48.072;7.800;2023-06-10T00:36:59;6.03;;;5.37;;
63555;SDS011;49700;48.072;7.800;2023-06-10T00:39:24;4.20;;;3.80;;
63555;SDS011;49700;48.072;7.800;2023-06-10T00:41:50;4.57;;;4.17;;
63555;SDS011;49700;48.072;7.800;2023-06-10T00:44:15;5.13;;;4.20;;
63555;SDS011;49700;48.072;7.800;2023-06-10T00:46:41;6.20;;;4.50;;
63555;SDS011;49700;48.072;7.800;2023-06-10T00:49:07;5.40;;;4.00;;
63555;SDS011;49700;48.072;7.800;2023-06-10T00:51:33;5.40;;;4.70;;
63555;SDS011;49700;48.072;7.800;2023-06-10T00:53:59;4.33;;;3.87;;
63555;SDS011;49700;48.072;7.800;2023-06-10T00:56:25;5.10;;;4.70;;
63555;SDS011;49700;48.072;7.800;2023-06-10T00:58:50;5.17;;;4.63;;
63555;SDS011;49700;48.072;7.800;2023-06-10T01:01:16;6.97;;;4.60;;
63555;SDS011;49700;48.072;7.800;2023-06-10T01:03:41;5.27;;;4.77;;
63555;SDS011;49700;48.072;7.800;2023-06-10T01:09:06;8.43;;;5.40;;
63555;SDS011;49700;48.072;7.800;2023-06-10T01:11:41;5.80;;;5.20;;
63555;SDS011;49700;48.072;7.800;2023-06-10T01:14:12;5.80;;;4.77;;
63555;SDS011;49700;48.072;7.800;2023-06-10T01:16:39;6.00;;;5.27;;
63555;SDS011;49700;48.072;7.800;2023-06-10T01:19:06;6.13;;;5.53;;
63555;SDS011;49700;48.072;7.800;2023-06-10T01:21:32;6.80;;;5.47;;
63555;SDS011;49700;48.072;7.800;2023-06-10T01:23:58;6.07;;;5.43;;
63555;SDS011;49700;48.072;7.800;2023-06-10T01:26:28;6.27;;;4.93;;
63555;SDS011;49700;48.072;7.800;2023-06-10T01:28:59;6.80;;;4.40;;
63555;SDS011;49700;48.072;7.800;2023-06-10T01:31:37;5.23;;;4.83;;
63555;SDS011;49700;48.072;7.800;2023-06-10T01:34:10;5.53;;;5.03;;
63555;SDS011;49700;48.072;7.800;2023-06-10T01:36:38;5.70;;;5.20;;
63555;SDS011;49700;48.072;7.800;2023-06-10T01:39:06;8.47;;;5.50;;
63555;SDS011;49700;48.072;7.800;2023-06-10T01:41:33;5.60;;;5.10;;
63555;SDS011;49700;48.072;7.800;2023-06-10T01:44:00;6.53;;;5.20;;
63555;SDS011;49700;48.072;7.800;2023-06-10T01:46:26;5.40;;;4.60;;
63555;SDS011;49700;48.072;7.800;2023-06-10T01:48:51;6.40;;;5.80;;
63555;SDS011;49700;48.072;7.800;2023-06-10T01:51:17;5.53;;;5.03;;
63555;SDS011;49700;48.072;7.800;2023-06-10T01:53:42;7.37;;;6.03;;
63555;SDS011;49700;48.072;7.800;2023-06-10T01:56:08;6.67;;;5.73;;
63555;SDS011;49700;48.072;7.800;2023-06-10T01:58:33;5.63;;;5.03;;
63555;SDS011;49700;48.072;7.800;2023-06-10T02:00:59;8.93;;;5.40;;
63555;SDS011;49700;48.072;7.800;2023-06-10T02:03:24;9.63;;;5.90;;
63555;SDS011;49700;48.072;7.800;2023-06-10T02:05:49;6.77;;;5.93;;
63555;SDS011;49700;48.072;7.800;2023-06-10T02:08:15;7.37;;;5.83;;
63555;SDS011;49700;48.072;7.800;2023-06-10T02:10:41;6.00;;;5.40;;
63555;SDS011;49700;48.072;7.800;2023-06-10T02:13:06;7.03;;;5.33;;
63555;SDS011;49700;48.072;7.800;2023-06-10T02:15:32;5.50;;;5.00;;
63555;SDS011;49700;48.072;7.800;2023-06-10T02:17:58;6.13;;;5.53;;
63555;SDS011;49700;48.072;7.800;2023-06-10T02:20:24;5.87;;;5.37;;
63555;SDS011;49700;48.072;7.800;2023-06-10T02:22:50;6.57;;;5.97;;
63555;SDS011;49700;48.072;7.800;2023-06-10T02:25:15;5.50;;;5.00;;
63555;SDS011;49700;48.072;7.800;2023-06-10T02:27:40;6.53;;;5.77;;
63555;SDS011;49700;48.072;7.800;2023-06-10T02:30:06;6.70;;;6.03;;
63555;SDS011;49700;48.072;7.800;2023-06-10T02:32:34;5.80;;;5.10;;
63555;SDS011;49700;48.072;7.800;2023-06-10T02:35:00;5.60;;;5.00;;
63555;SDS011;49700;48.072;7.800;2023-06-10T02:37:28;5.63;;;5.13;;
63555;SDS011;49700;48.072;7.800;2023-06-10T02:39:54;5.90;;;5.33;;
63555;SDS011;49700;48.072;7.800;2023-06-10T02:42:20;7.97;;;5.33;;
63555;SDS011;49700;48.072;7.800;2023-06-10T02:44:46;6.53;;;5.77;;
63555;SDS011;49700;48.072;7.800;2023-06-10T02:47:19;7.60;;;6.30;;
63555;SDS011;49700;48.072;7.800;2023-06-10T02:49:45;5.57;;;5.07;;
63555;SDS011;49700;48.072;7.800;2023-06-10T02:52:11;6.57;;;4.60;;
63555;SDS011;49700;48.072;7.800;2023-06-10T02:54:37;6.47;;;5.33;;
63555;SDS011;49700;48.072;7.800;2023-06-10T02:57:04;6.73;;;5.57;;
63555;SDS011;49700;48.072;7.800;2023-06-10T02:59:31;6.30;;;5.70;;
63555;SDS011;49700;48.072;7.800;2023-06-10T03:01:57;7.20;;;5.83;;
63555;SDS011;49700;48.072;7.800;2023-06-10T03:04:24;6.80;;;6.20;;
63555;SDS011;49700;48.072;7.800;2023-06-10T03:06:58;5.60;;;5.10;;
63555;SDS011;49700;48.072;7.800;2023-06-10T03:09:29;6.83;;;6.13;;
63555;SDS011;49700;48.072;7.800;2023-06-10T03:11:56;9.23;;;6.37;;
63555;SDS011;49700;48.072;7.800;2023-06-10T03:14:22;8.00;;;6.23;;
63555;SDS011;49700;48.072;7.800;2023-06-10T03:16:48;5.40;;;5.00;;
63555;SDS011;49700;48.072;7.800;2023-06-10T03:19:14;7.03;;;6.33;;
63555;SDS011;49700;48.072;7.800;2023-06-10T03:21:44;6.43;;;5.83;;
63555;SDS011;49700;48.072;7.800;2023-06-10T03:24:12;7.17;;;6.10;;
63555;SDS011;49700;48.072;7.800;2023-06-10T03:26:37;7.43;;;6.23;;
63555;SDS011;49700;48.072;7.800;2023-06-10T03:29:05;11.43;;;7.53;;
63555;SDS011;49700;48.072;7.800;2023-06-10T03:31:30;7.00;;;6.20;;
63555;SDS011;49700;48.072;7.800;2023-06-10T03:33:57;6.60;;;5.80;;
63555;SDS011;49700;48.072;7.800;2023-06-10T03:36:23;8.38;;;7.40;;
63555;SDS011;49700;48.072;7.800;2023-06-10T03:38:49;5.90;;;5.40;;
63555;SDS011;49700;48.072;7.800;2023-06-10T03:41:17;7.37;;;5.80;;
63555;SDS011;49700;48.072;7.800;2023-06-10T03:43:43;8.53;;;5.53;;
63555;SDS011;49700;48.072;7.800;2023-06-10T03:46:11;6.10;;;5.50;;
63555;SDS011;49700;48.072;7.800;2023-06-10T03:48:38;6.80;;;6.13;;
63555;SDS011;49700;48.072;7.800;2023-06-10T03:51:05;7.30;;;6.60;;
63555;SDS011;49700;48.072;7.800;2023-06-10T03:53:31;7.30;;;5.47;;
63555;SDS011;49700;48.072;7.800;2023-06-10T03:55:57;6.60;;;6.00;;
63555;SDS011;49700;48.072;7.800;2023-06-10T03:58:25;6.83;;;5.70;;
63555;SDS011;49700;48.072;7.800;2023-06-10T04:00:51;7.30;;;6.60;;
63555;SDS011;49700;48.072;7.800;2023-06-10T04:03:17;7.00;;;6.40;;
63555;SDS011;49700;48.072;7.800;2023-06-10T04:05:46;6.55;;;5.95;;
63555;SDS011;49700;48.072;7.800;2023-06-10T04:08:12;6.40;;;5.80;;
63555;SDS011;49700;48.072;7.800;2023-06-10T04:10:37;6.87;;;6.27;;
63555;SDS011;49700;48.072;7.800;2023-06-10T04:13:03;6.40;;;5.63;;
63555;SDS011;49700;48.072;7.800;2023-06-10T04:15:33;7.23;;;6.60;;
63555;SDS011;49700;48.072;7.800;2023-06-10T04:18:04;11.70;;;7.10;;
63555;SDS011;49700;48.072;7.800;2023-06-10T04:20:30;7.37;;;6.63;;
63555;SDS011;49700;48.072;7.800;2023-06-10T04:22:56;7.70;;;6.07;;
63555;SDS011;49700;48.072;7.800;2023-06-10T04:25:21;7.57;;;6.80;;
63555;SDS011;49700;48.072;7.800;2023-06-10T04:27:48;7.50;;;6.40;;
63555;SDS011;49700;48.072;7.800;2023-06-10T04:30:14;5.97;;;5.37;;
63555;SDS011;49700;48.072;7.800;2023-06-10T04:32:40;8.30;;;5.83;;
63555;SDS011;49700;48.072;7.800;2023-06-10T04:35:14;7.30;;;6.30;;
63555;SDS011;49700;48.072;7.800;2023-06-10T04:37:41;7.53;;;6.77;;
63555;SDS011;49700;48.072;7.800;2023-06-10T04:40:08;6.13;;;5.70;;
63555;SDS011;49700;48.072;7.800;2023-06-10T04:42:35;7.70;;;6.43;;
63555;SDS011;49700;48.072;7.800;2023-06-10T04:45:00;7.23;;;6.53;;
63555;SDS011;49700;48.072;7.800;2023-06-10T04:47:27;7.93;;;6.97;;
63555;SDS011;49700;48.072;7.800;2023-06-10T04:49:53;7.03;;;6.37;;
63555;SDS011;49700;48.072;7.800;2023-06-10T04:52:18;6.87;;;5.40;;
63555;SDS011;49700;48.072;7.800;2023-06-10T04:54:45;7.73;;;6.20;;
63555;SDS011;49700;48.072;7.800;2023-06-10T04:57:11;7.37;;;6.10;;
63555;SDS011;49700;48.072;7.800;2023-06-10T04:59:36;6.90;;;6.20;;
63555;SDS011;49700;48.072;7.800;2023-06-10T05:02:04;7.83;;;5.93;;
63555;SDS011;49700;48.072;7.800;2023-06-10T05:04:30;6.60;;;5.70;;
63555;SDS011;49700;48.072;7.800;2023-06-10T05:06:56;8.97;;;7.40;;
63555;SDS011;49700;48.072;7.800;2023-06-10T05:09:21;7.00;;;6.33;;
63555;SDS011;49700;48.072;7.800;2023-06-10T05:11:47;8.03;;;6.67;;
63555;SDS011;49700;48.072;7.800;2023-06-10T05:14:12;8.53;;;7.17;;
63555;SDS011;49700;48.072;7.800;2023-06-10T05:16:38;10.10;;;6.77;;
63555;SDS011;49700;48.072;7.800;2023-06-10T05:19:03;8.30;;;6.80;;
63555;SDS011;49700;48.072;7.800;2023-06-10T05:21:29;7.90;;;7.13;;
63555;SDS011;49700;48.072;7.800;2023-06-10T05:23:55;6.00;;;5.50;;
63555;SDS011;49700;48.072;7.800;2023-06-10T05:26:20;5.77;;;5.27;;
63555;SDS011;49700;48.072;7.800;2023-06-10T05:28:46;7.10;;;6.53;;
63555;SDS011;49700;48.072;7.800;2023-06-10T05:31:12;7.80;;;7.03;;
63555;SDS011;49700;48.072;7.800;2023-06-10T05:33:37;6.07;;;5.47;;
63555;SDS011;49700;48.072;7.800;2023-06-10T05:36:03;7.60;;;6.80;;
63555;SDS011;49700;48.072;7.800;2023-06-10T05:38:29;7.57;;;6.83;;
63555;SDS011;49700;48.072;7.800;2023-06-10T05:40:54;7.33;;;5.83;;
63555;SDS011;49700;48.072;7.800;2023-06-10T05:43:21;6.70;;;6.10;;
63555;SDS011;49700;48.072;7.800;2023-06-10T05:45:47;7.80;;;7.10;;
63555;SDS011;49700;48.072;7.800;2023-06-10T05:48:13;7.77;;;6.93;;
63555;SDS011;49700;48.072;7.800;2023-06-10T05:50:39;8.13;;;6.43;;
63555;SDS011;49700;48.072;7.800;2023-06-10T05:53:07;7.93;;;6.67;;
63555;SDS011;49700;48.072;7.800;2023-06-10T05:55:40;7.53;;;6.82;;
63555;SDS011;49700;48.072;7.800;2023-06-10T05:58:09;7.07;;;6.10;;
63555;SDS011;49700;48.072;7.800;2023-06-10T06:00:34;6.97;;;6.27;;
63555;SDS011;49700;48.072;7.800;2023-06-10T06:03:00;7.20;;;6.50;;
63555;SDS011;49700;48.072;7.800;2023-06-10T06:05:25;6.37;;;5.77;;
63555;SDS011;49700;48.072;7.800;2023-06-10T06:07:51;6.40;;;5.83;;
63555;SDS011;49700;48.072;7.800;2023-06-10T06:10:17;6.00;;;5.50;;
63555;SDS011;49700;48.072;7.800;2023-06-10T06:12:43;6.30;;;5.70;;
63555;SDS011;49700;48.072;7.800;2023-06-10T06:15:09;5.90;;;5.30;;
63555;SDS011;49700;48.072;7.800;2023-06-10T06:17:35;6.93;;;6.23;;
63555;SDS011;49700;48.072;7.800;2023-06-10T06:20:01;6.63;;;6.03;;
63555;SDS011;49700;48.072;7.800;2023-06-10T06:22:27;6.37;;;5.77;;
63555;SDS011;49700;48.072;7.800;2023-06-10T06:24:53;6.13;;;5.53;;
63555;SDS011;49700;48.072;7.800;2023-06-10T06:27:18;6.03;;;5.53;;
63555;SDS011;49700;48.072;7.800;2023-06-10T06:29:43;5.60;;;5.10;;
63555;SDS011;49700;48.072;7.800;2023-06-10T06:32:09;6.23;;;5.70;;
63555;SDS011;49700;48.072;7.800;2023-06-10T06:34:34;6.93;;;5.60;;
63555;SDS011;49700;48.072;7.800;2023-06-10T06:37:00;5.90;;;5.40;;
63555;SDS011;49700;48.072;7.800;2023-06-10T06:39:29;6.60;;;5.60;;
63555;SDS011;49700;48.072;7.800;2023-06-10T06:41:54;6.30;;;5.70;;
63555;SDS011;49700;48.072;7.800;2023-06-10T06:44:34;6.03;;;5.43;;
63555;SDS011;49700;48.072;7.800;2023-06-10T06:46:59;5.97;;;5.47;;
63555;SDS011;49700;48.072;7.800;2023-06-10T06:49:24;5.27;;;4.77;;
63555;SDS011;49700;48.072;7.800;2023-06-10T06:51:50;6.00;;;5.00;;
63555;SDS011;49700;48.072;7.800;2023-06-10T06:54:15;5.50;;;5.00;;
63555;SDS011;49700;48.072;7.800;2023-06-10T06:56:41;4.40;;;4.03;;
63555;SDS011;49700;48.072;7.800;2023-06-10T06:59:06;6.53;;;5.40;;
63555;SDS011;49700;48.072;7.800;2023-06-10T07:01:33;5.50;;;5.00;;
63555;SDS011;49700;48.072;7.800;2023-06-10T07:03:59;5.93;;;5.27;;
63555;SDS011;49700;48.072;7.800;2023-06-10T07:06:24;6.40;;;5.80;;
63555;SDS011;49700;48.072;7.800;2023-06-10T07:08:50;6.47;;;5.87;;
63555;SDS011;49700;48.072;7.800;2023-06-10T07:11:16;8.30;;;5.83;;
63555;SDS011;49700;48.072;7.800;2023-06-10T07:13:42;7.03;;;6.10;;
63555;SDS011;49700;48.072;7.800;2023-06-10T07:16:08;5.60;;;5.20;;
63555;SDS011;49700;48.072;7.800;2023-06-10T07:18:33;6.40;;;5.80;;
63555;SDS011;49700;48.072;7.800;2023-06-10T07:20:58;5.63;;;5.13;;
63555;SDS011;49700;48.072;7.800;2023-06-10T07:23:24;7.60;;;5.97;;
63555;SDS011;49700;48.072;7.800;2023-06-10T07:25:50;5.47;;;4.97;;
63555;SDS011;49700;48.072;7.800;2023-06-10T07:28:15;7.13;;;5.63;;
63555;SDS011;49700;48.072;7.800;2023-06-10T07:30:40;5.90;;;5.30;;
63555;SDS011;49700;48.072;7.800;2023-06-10T07:33:06;8.10;;;6.07;;
63555;SDS011;49700;48.072;7.800;2023-06-10T07:35:32;7.53;;;5.80;;
63555;SDS011;49700;48.072;7.800;2023-06-10T07:37:58;6.37;;;5.87;;
63555;SDS011;49700;48.072;7.800;2023-06-10T07:40:23;8.80;;;6.77;;
63555;SDS011;49700;48.072;7.800;2023-06-10T07:42:49;6.00;;;5.47;;
63555;SDS011;49700;48.072;7.800;2023-06-10T07:45:14;6.00;;;5.43;;
63555;SDS011;49700;48.072;7.800;2023-06-10T07:47:40;7.40;;;5.90;;
63555;SDS011;49700;48.072;7.800;2023-06-10T07:50:05;5.17;;;4.77;;
63555;SDS011;49700;48.072;7.800;2023-06-10T07:52:31;8.67;;;6.90;;
63555;SDS011;49700;48.072;7.800;2023-06-10T07:54:57;6.47;;;5.87;;
63555;SDS011;49700;48.072;7.800;2023-06-10T07:57:22;6.27;;;5.73;;
63555;SDS011;49700;48.072;7.800;2023-06-10T07:59:47;5.37;;;4.87;;
63555;SDS011;49700;48.072;7.800;2023-06-10T08:02:13;4.80;;;4.30;;
63555;SDS011;49700;48.072;7.800;2023-06-10T08:04:39;7.70;;;5.80;;
63555;SDS011;49700;48.072;7.800;2023-06-10T08:07:04;6.70;;;6.00;;
63555;SDS011;49700;48.072;7.800;2023-06-10T08:09:30;5.70;;;5.20;;
63555;SDS011;49700;48.072;7.800;2023-06-10T08:11:55;5.23;;;4.70;;
63555;SDS011;49700;48.072;7.800;2023-06-10T08:14:21;5.90;;;5.40;;
63555;SDS011;49700;48.072;7.800;2023-06-10T08:16:46;5.67;;;4.90;;
63555;SDS011;49700;48.072;7.800;2023-06-10T08:19:12;6.87;;;5.90;;
63555;SDS011;49700;48.072;7.800;2023-06-10T08:21:37;6.47;;;5.87;;
63555;SDS011;49700;48.072;7.800;2023-06-10T08:24:04;6.20;;;5.60;;
63555;SDS011;49700;48.072;7.800;2023-06-10T08:26:34;8.50;;;6.00;;
63555;SDS011;49700;48.072;7.800;2023-06-10T08:28:59;7.57;;;6.70;;
63555;SDS011;49700;48.072;7.800;2023-06-10T08:31:25;7.10;;;6.50;;
63555;SDS011;49700;48.072;7.800;2023-06-10T08:33:50;7.33;;;6.07;;
63555;SDS011;49700;48.072;7.800;2023-06-10T08:36:15;7.20;;;6.50;;
63555;SDS011;49700;48.072;7.800;2023-06-10T08:38:41;7.73;;;7.10;;
63555;SDS011;49700;48.072;7.800;2023-06-10T08:41:06;6.73;;;6.17;;
63555;SDS011;49700;48.072;7.800;2023-06-10T08:43:42;7.93;;;7.23;;
63555;SDS011;49700;48.072;7.800;2023-06-10T08:46:12;7.47;;;6.80;;
63555;SDS011;49700;48.072;7.800;2023-06-10T08:48:42;7.80;;;7.00;;
63555;SDS011;49700;48.072;7.800;2023-06-10T08:51:08;7.27;;;6.50;;
63555;SDS011;49700;48.072;7.800;2023-06-10T08:53:36;8.97;;;8.27;;
63555;SDS011;49700;48.072;7.800;2023-06-10T08:56:02;9.33;;;8.63;;
63555;SDS011;49700;48.072;7.800;2023-06-10T08:58:31;8.63;;;7.90;;
63555;SDS011;49700;48.072;7.800;2023-06-10T09:00:58;8.00;;;7.30;;
63555;SDS011;49700;48.072;7.800;2023-06-10T09:03:24;7.83;;;7.03;;
63555;SDS011;49700;48.072;7.800;2023-06-10T09:05:50;8.00;;;7.40;;
63555;SDS011;49700;48.072;7.800;2023-06-10T09:08:16;7.87;;;7.27;;
63555;SDS011;49700;48.072;7.800;2023-06-10T09:10:43;7.63;;;7.00;;
63555;SDS011;49700;48.072;7.800;2023-06-10T09:13:08;9.47;;;8.47;;
63555;SDS011;49700;48.072;7.800;2023-06-10T09:15:33;8.10;;;7.40;;
63555;SDS011;49700;48.072;7.800;2023-06-10T09:17:59;9.10;;;8.20;;
63555;SDS011;49700;48.072;7.800;2023-06-10T09:20:25;8.53;;;7.80;;
63555;SDS011;49700;48.072;7.800;2023-06-10T09:22:50;8.83;;;8.03;;
63555;SDS011;49700;48.072;7.800;2023-06-10T09:25:16;8.20;;;7.40;;
63555;SDS011;49700;48.072;7.800;2023-06-10T09:30:24;8.67;;;7.90;;
63555;SDS011;49700;48.072;7.800;2023-06-10T09:32:53;7.77;;;7.00;;
63555;SDS011;49700;48.072;7.800;2023-06-10T09:35:21;8.17;;;7.57;;
63555;SDS011;49700;48.072;7.800;2023-06-10T09:37:49;8.13;;;7.43;;
63555;SDS011;49700;48.072;7.800;2023-06-10T09:40:17;7.90;;;7.30;;
63555;SDS011;49700;48.072;7.800;2023-06-10T09:42:42;8.40;;;7.57;;
63555;SDS011;49700;48.072;7.800;2023-06-10T09:45:07;7.80;;;7.10;;
63555;SDS011;49700;48.072;7.800;2023-06-10T09:47:33;11.00;;;7.33;;
63555;SDS011;49700;48.072;7.800;2023-06-10T09:49:59;9.80;;;9.00;;
63555;SDS011;49700;48.072;7.800;2023-06-10T09:52:25;8.67;;;7.73;;
63555;SDS011;49700;48.072;7.800;2023-06-10T09:54:53;9.23;;;8.40;;
63555;SDS011;49700;48.072;7.800;2023-06-10T09:57:20;8.40;;;7.60;;
63555;SDS011;49700;48.072;7.800;2023-06-10T09:59:46;10.37;;;9.00;;
63555;SDS011;49700;48.072;7.800;2023-06-10T10:02:15;8.90;;;8.20;;
63555;SDS011;49700;48.072;7.800;2023-06-10T10:04:42;8.70;;;7.90;;
63555;SDS011;49700;48.072;7.800;2023-06-10T10:07:08;8.67;;;7.77;;
63555;SDS011;49700;48.072;7.800;2023-06-10T10:09:38;9.10;;;8.30;;
63555;SDS011;49700;48.072;7.800;2023-06-10T10:12:11;9.67;;;8.87;;
63555;SDS011;49700;48.072;7.800;2023-06-10T10:14:38;8.77;;;8.03;;
63555;SDS011;49700;48.072;7.800;2023-06-10T10:17:07;9.60;;;8.70;;
63555;SDS011;49700;48.072;7.800;2023-06-10T10:19:53;9.63;;;8.73;;
63555;SDS011;49700;48.072;7.800;2023-06-10T10:22:26;9.33;;;8.53;;
63555;SDS011;49700;48.072;7.800;2023-06-10T10:24:59;9.00;;;8.30;;
63555;SDS011;49700;48.072;7.800;2023-06-10T10:27:36;8.30;;;7.60;;
63555;SDS011;49700;48.072;7.800;2023-06-10T10:30:10;8.23;;;7.40;;
63555;SDS011;49700;48.072;7.800;2023-06-10T10:32:38;8.67;;;8.00;;
63555;SDS011;49700;48.072;7.800;2023-06-10T10:35:12;10.13;;;9.33;;
63555;SDS011;49700;48.072;7.800;2023-06-10T10:37:43;7.83;;;7.13;;
63555;SDS011;49700;48.072;7.800;2023-06-10T10:40:09;8.10;;;7.30;;
63555;SDS011;49700;48.072;7.800;2023-06-10T10:42:36;7.87;;;7.27;;
63555;SDS011;49700;48.072;7.800;2023-06-10T10:45:02;8.77;;;7.90;;
63555;SDS011;49700;48.072;7.800;2023-06-10T10:47:28;15.97;;;9.43;;
63555;SDS011;49700;48.072;7.800;2023-06-10T10:49:56;8.57;;;7.77;;
63555;SDS011;49700;48.072;7.800;2023-06-10T10:52:24;8.00;;;7.40;;
63555;SDS011;49700;48.072;7.800;2023-06-10T10:54:50;6.90;;;6.27;;
63555;SDS011;49700;48.072;7.800;2023-06-10T10:57:19;8.27;;;7.47;;
63555;SDS011;49700;48.072;7.800;2023-06-10T11:05:10;7.57;;;6.77;;
63555;SDS011;49700;48.072;7.800;2023-06-10T11:07:39;7.30;;;6.77;;
63555;SDS011;49700;48.072;7.800;2023-06-10T11:10:08;8.23;;;7.53;;
63555;SDS011;49700;48.072;7.800;2023-06-10T11:12:41;8.23;;;7.43;;
63555;SDS011;49700;48.072;7.800;2023-06-10T11:15:19;7.87;;;7.13;;
63555;SDS011;49700;48.072;7.800;2023-06-10T11:31:28;10.50;;;7.47;;
63555;SDS011;49700;48.072;7.800;2023-06-10T11:34:02;8.77;;;7.90;;
63555;SDS011;49700;48.072;7.800;2023-06-10T11:36:30;7.90;;;7.20;;
63555;SDS011;49700;48.072;7.800;2023-06-10T11:39:01;7.57;;;6.60;;
63555;SDS011;49700;48.072;7.800;2023-06-10T11:41:28;6.70;;;6.03;;
63555;SDS011;49700;48.072;7.800;2023-06-10T11:43:56;6.50;;;5.97;;
63555;SDS011;49700;48.072;7.800;2023-06-10T11:46:26;7.50;;;6.90;;
63555;SDS011;49700;48.072;7.800;2023-06-10T11:48:56;7.47;;;6.87;;
63555;SDS011;49700;48.072;7.800;2023-06-10T11:51:27;7.67;;;6.97;;
63555;SDS011;49700;48.072;7.800;2023-06-10T11:53:53;7.50;;;6.90;;
63555;SDS011;49700;48.072;7.800;2023-06-10T11:56:23;7.60;;;6.90;;
63555;SDS011;49700;48.072;7.800;2023-06-10T11:58:59;7.43;;;6.37;;
63555;SDS011;49700;48.072;7.800;2023-06-10T12:01:36;7.00;;;6.13;;
63555;SDS011;49700;48.072;7.800;2023-06-10T12:06:39;6.80;;;6.20;;
63555;SDS011;49700;48.072;7.800;2023-06-10T12:09:22;10.10;;;6.87;;
63555;SDS011;49700;48.072;7.800;2023-06-10T12:11:50;6.90;;;6.20;;
63555;SDS011;49700;48.072;7.800;2023-06-10T12:17:22;7.83;;;7.13;;
63555;SDS011;49700;48.072;7.800;2023-06-10T12:20:08;14.40;;;6.63;;
63555;SDS011;49700;48.072;7.800;2023-06-10T12:22:49;6.67;;;6.07;;
63555;SDS011;49700;48.072;7.800;2023-06-10T12:25:14;6.40;;;5.80;;
63555;SDS011;49700;48.072;7.800;2023-06-10T12:27:40;6.10;;;5.60;;
63555;SDS011;49700;48.072;7.800;2023-06-10T12:30:18;6.57;;;5.97;;
63555;SDS011;49700;48.072;7.800;2023-06-10T12:32:45;6.53;;;5.70;;
63555;SDS011;49700;48.072;7.800;2023-06-10T12:35:16;6.30;;;5.80;;
63555;SDS011;49700;48.072;7.800;2023-06-10T12:37:57;6.77;;;5.67;;
63555;SDS011;49700;48.072;7.800;2023-06-10T12:40:29;7.23;;;6.63;;
63555;SDS011;49700;48.072;7.800;2023-06-10T12:42:58;6.37;;;5.87;;
63555;SDS011;49700;48.072;7.800;2023-06-10T12:45:37;5.47;;;4.97;;
63555;SDS011;49700;48.072;7.800;2023-06-10T12:48:08;6.03;;;5.53;;
63555;SDS011;49700;48.072;7.800;2023-06-10T12:50:39;6.90;;;6.13;;
63555;SDS011;49700;48.072;7.800;2023-06-10T12:53:05;5.80;;;5.20;;
63555;SDS011;49700;48.072;7.800;2023-06-10T12:55:31;6.70;;;6.10;;
63555;SDS011;49700;48.072;7.800;2023-06-10T12:57:58;4.83;;;4.43;;
63555;SDS011;49700;48.072;7.800;2023-06-10T13:00:24;6.10;;;5.47;;
63555;SDS011;49700;48.072;7.800;2023-06-10T13:02:51;5.60;;;5.10;;
63555;SDS011;49700;48.072;7.800;2023-06-10T13:05:18;6.77;;;6.13;;
63555;SDS011;49700;48.072;7.800;2023-06-10T13:07:45;6.00;;;5.40;;
63555;SDS011;49700;48.072;7.800;2023-06-10T13:10:12;6.07;;;5.57;;
63555;SDS011;49700;48.072;7.800;2023-06-10T13:12:41;5.20;;;4.80;;
63555;SDS011;49700;48.072;7.800;2023-06-10T13:15:07;5.33;;;4.93;;
63555;SDS011;49700;48.072;7.800;2023-06-10T13:17:33;6.53;;;5.90;;
63555;SDS011;49700;48.072;7.800;2023-06-10T13:20:02;5.10;;;4.60;;
63555;SDS011;49700;48.072;7.800;2023-06-10T13:22:30;5.70;;;5.27;;
63555;SDS011;49700;48.072;7.800;2023-06-10T13:24:58;4.87;;;4.50;;
63555;SDS011;49700;48.072;7.800;2023-06-10T13:27:28;5.77;;;5.27;;
63555;SDS011;49700;48.072;7.800;2023-06-10T13:29:53;6.03;;;5.20;;
63555;SDS011;49700;48.072;7.800;2023-06-10T13:32:19;4.93;;;4.53;;
63555;SDS011;49700;48.072;7.800;2023-06-10T13:34:44;6.00;;;5.50;;
63555;SDS011;49700;48.072;7.800;2023-06-10T13:37:10;5.50;;;4.57;;
63555;SDS011;49700;48.072;7.800;2023-06-10T13:39:37;4.23;;;3.83;;
63555;SDS011;49700;48.072;7.800;2023-06-10T13:42:03;4.60;;;4.20;;
63555;SDS011;49700;48.072;7.800;2023-06-10T13:44:28;5.77;;;5.20;;
63555;SDS011;49700;48.072;7.800;2023-06-10T13:46:58;8.47;;;5.80;;
63555;SDS011;49700;48.072;7.800;2023-06-10T13:49:24;6.27;;;5.60;;
63555;SDS011;49700;48.072;7.800;2023-06-10T13:51:49;6.30;;;5.80;;
63555;SDS011;49700;48.072;7.800;2023-06-10T13:54:14;6.30;;;5.80;;
63555;SDS011;49700;48.072;7.800;2023-06-10T13:56:40;6.67;;;6.07;;
63555;SDS011;49700;48.072;7.800;2023-06-10T13:59:06;6.90;;;6.20;;
63555;SDS011;49700;48.072;7.800;2023-06-10T14:01:31;6.53;;;6.03;;
63555;SDS011;49700;48.072;7.800;2023-06-10T14:03:57;6.57;;;5.97;;
63555;SDS011;49700;48.072;7.800;2023-06-10T14:06:22;6.50;;;5.90;;
63555;SDS011;49700;48.072;7.800;2023-06-10T14:08:48;7.20;;;6.60;;
63555;SDS011;49700;48.072;7.800;2023-06-10T14:11:13;6.00;;;5.50;;
63555;SDS011;49700;48.072;7.800;2023-06-10T14:13:38;6.90;;;6.40;;
63555;SDS011;49700;48.072;7.800;2023-06-10T14:16:04;6.50;;;5.90;;
63555;SDS011;49700;48.072;7.800;2023-06-10T14:18:30;6.17;;;5.40;;
63555;SDS011;49700;48.072;7.800;2023-06-10T14:20:55;5.27;;;4.77;;
63555;SDS011;49700;48.072;7.800;2023-06-10T14:23:21;5.80;;;4.97;;
63555;SDS011;49700;48.072;7.800;2023-06-10T14:25:46;5.50;;;5.00;;
63555;SDS011;49700;48.072;7.800;2023-06-10T14:28:11;5.60;;;4.97;;
63555;SDS011;49700;48.072;7.800;2023-06-10T14:30:37;4.97;;;4.57;;
63555;SDS011;49700;48.072;7.800;2023-06-10T14:33:02;4.40;;;4.00;;
63555;SDS011;49700;48.072;7.800;2023-06-10T14:35:28;5.03;;;4.63;;
63555;SDS011;49700;48.072;7.800;2023-06-10T14:37:53;5.10;;;4.70;;
63555;SDS011;49700;48.072;7.800;2023-06-10T14:40:18;4.53;;;4.20;;
63555;SDS011;49700;48.072;7.800;2023-06-10T14:42:46;7.17;;;4.50;;
63555;SDS011;49700;48.072;7.800;2023-06-10T14:45:12;4.50;;;4.10;;
63555;SDS011;49700;48.072;7.800;2023-06-10T14:47:37;4.67;;;4.27;;
63555;SDS011;49700;48.072;7.800;2023-06-10T14:50:02;5.13;;;4.47;;
63555;SDS011;49700;48.072;7.800;2023-06-10T14:52:28;15.23;;;6.80;;
63555;SDS011;49700;48.072;7.800;2023-06-10T14:54:53;3.93;;;3.47;;
63555;SDS011;49700;48.072;7.800;2023-06-10T14:57:19;4.80;;;4.40;;
63555;SDS011;49700;48.072;7.800;2023-06-10T14:59:44;5.50;;;4.60;;
63555;SDS011;49700;48.072;7.800;2023-06-10T15:02:10;4.80;;;4.40;;
63555;SDS011;49700;48.072;7.800;2023-06-10T15:04:35;4.00;;;3.67;;
63555;SDS011;49700;48.072;7.800;2023-06-10T15:07:00;4.67;;;4.33;;
63555;SDS011;49700;48.072;7.800;2023-06-10T15:09:26;4.27;;;3.87;;
63555;SDS011;49700;48.072;7.800;2023-06-10T15:11:51;5.10;;;4.70;;
63555;SDS011;49700;48.072;7.800;2023-06-10T15:14:17;5.50;;;5.03;;
63555;SDS011;49700;48.072;7.800;2023-06-10T15:16:42;4.30;;;3.80;;